createdAt,value
2019-04-26T00:01:15.803Z,3.57
2019-04-26T00:03:48.957Z,3.50
2019-04-26T00:06:20.332Z,2.47
2019-04-26T00:08:53.176Z,2.57
2019-04-26T00:11:34.978Z,2.17
2019-04-26T00:14:07.825Z,4.57
2019-04-26T00:16:43.415Z,2.93
2019-04-26T00:19:14.524Z,2.23
2019-04-26T00:21:46.805Z,2.83
2019-04-26T00:24:19.404Z,3.10
2019-04-26T00:26:50.422Z,4.20
2019-04-26T00:29:21.285Z,2.23
2019-04-26T00:31:52.350Z,4.87
2019-04-26T00:34:23.209Z,3.07
2019-04-26T00:36:54.184Z,4.17
2019-04-26T00:39:25.147Z,3.13
2019-04-26T00:41:57.134Z,3.03
2019-04-26T00:44:28.193Z,3.00
2019-04-26T00:47:01.930Z,4.20
2019-04-26T00:49:43.484Z,4.27
2019-04-26T00:52:08.653Z,2.70
2019-04-26T00:54:39.823Z,4.80
2019-04-26T00:57:11.939Z,2.10
2019-04-26T00:59:43.492Z,3.43
2019-04-26T01:02:16.680Z,3.00
2019-04-26T01:04:47.612Z,2.67
2019-04-26T01:07:19.083Z,2.40
2019-04-26T01:09:50.209Z,1.63
2019-04-26T01:12:21.928Z,3.40
2019-04-26T01:14:53.048Z,3.87
2019-04-26T01:17:24.581Z,4.20
2019-04-26T01:19:56.670Z,2.23
2019-04-26T01:22:31.378Z,4.60
2019-04-26T01:25:04.117Z,2.27
2019-04-26T01:27:36.157Z,2.67
2019-04-26T01:30:09.239Z,4.07
2019-04-26T01:32:41.716Z,2.97
2019-04-26T01:35:12.707Z,3.70
2019-04-26T01:37:45.637Z,2.27
2019-04-26T01:40:18.510Z,2.33
2019-04-26T01:42:54.781Z,3.93
2019-04-26T01:45:28.271Z,2.80
2019-04-26T01:48:39.265Z,3.80
2019-04-26T01:51:14.024Z,3.47
2019-04-26T01:53:48.585Z,3.07
2019-04-26T01:56:23.580Z,4.00
2019-04-26T01:58:54.709Z,4.03
2019-04-26T02:01:46.370Z,3.87
2019-04-26T02:04:17.932Z,2.50
2019-04-26T02:06:49.005Z,2.10
2019-04-26T02:09:22.875Z,2.40
2019-04-26T02:11:54.024Z,2.70
2019-04-26T02:14:25.294Z,3.80
2019-04-26T02:16:56.742Z,4.53
2019-04-26T02:19:29.471Z,3.07
2019-04-26T02:22:02.802Z,3.10
2019-04-26T02:24:36.000Z,2.93
2019-04-26T02:27:08.951Z,3.80
2019-04-26T02:29:39.927Z,3.57
2019-04-26T02:32:11.230Z,2.57
2019-04-26T02:34:42.489Z,2.87
2019-04-26T02:37:14.542Z,1.83
2019-04-26T02:39:45.492Z,2.47
2019-04-26T02:42:23.123Z,2.53
2019-04-26T02:45:14.707Z,3.00
2019-04-26T02:47:54.316Z,3.97
2019-04-26T02:50:38.382Z,2.13
2019-04-26T02:53:29.520Z,2.50
2019-04-26T02:56:25.422Z,2.60
2019-04-26T02:59:00.066Z,2.40
2019-04-26T03:01:32.418Z,4.27
2019-04-26T03:04:04.180Z,2.40
2019-04-26T03:06:40.602Z,3.27
2019-04-26T03:09:14.404Z,2.50
2019-04-26T03:12:04.064Z,4.87
2019-04-26T03:14:52.027Z,2.90
2019-04-26T03:17:32.515Z,2.67
2019-04-26T03:20:15.201Z,2.13
2019-04-26T03:22:55.874Z,3.00
2019-04-26T03:25:45.543Z,2.40
2019-04-26T03:28:39.994Z,2.57
2019-04-26T03:31:20.955Z,3.53
2019-04-26T03:33:55.802Z,2.73
2019-04-26T03:36:37.419Z,3.03
2019-04-26T03:39:16.584Z,4.17
2019-04-26T03:42:05.066Z,2.43
2019-04-26T03:44:51.730Z,2.27
2019-04-26T03:47:26.393Z,3.17
2019-04-26T03:50:12.510Z,2.73
2019-04-26T03:53:03.976Z,2.27
2019-04-26T03:55:43.258Z,2.97
2019-04-26T03:58:19.009Z,2.40
2019-04-26T04:00:53.329Z,3.63
2019-04-26T04:03:49.401Z,2.77
2019-04-26T04:06:25.956Z,4.47
2019-04-26T04:09:04.352Z,3.23
2019-04-26T04:11:49.425Z,4.03
2019-04-26T04:14:42.867Z,2.00
2019-04-26T04:17:28.510Z,2.50
2019-04-26T04:20:19.495Z,2.57
2019-04-26T04:23:17.049Z,4.73
2019-04-26T04:25:50.329Z,2.27
2019-04-26T04:28:33.633Z,2.87
2019-04-26T04:31:32.243Z,2.13
2019-04-26T04:34:16.187Z,3.93
2019-04-26T04:36:51.516Z,2.43
2019-04-26T04:39:26.640Z,2.50
2019-04-26T04:42:09.178Z,3.00
2019-04-26T04:45:21.734Z,2.20
2019-04-26T04:48:18.694Z,3.33
2019-04-26T04:51:16.293Z,3.53
2019-04-26T04:54:07.698Z,2.60
2019-04-26T04:57:17.542Z,3.47
2019-04-26T04:59:58.442Z,2.50
2019-04-26T05:02:59.033Z,2.57
2019-04-26T05:05:43.497Z,2.10
2019-04-26T05:08:18.318Z,2.23
2019-04-26T05:11:10.588Z,2.37
2019-04-26T05:13:46.377Z,3.30
2019-04-26T05:16:45.000Z,3.53
2019-04-26T05:19:35.270Z,2.30
2019-04-26T05:22:28.168Z,5.23
2019-04-26T05:25:49.375Z,4.30
2019-04-26T05:28:49.573Z,2.20
2019-04-26T05:31:34.199Z,3.73
2019-04-26T05:34:35.216Z,2.90
2019-04-26T05:37:27.842Z,2.67
2019-04-26T05:40:05.388Z,6.60
2019-04-26T05:43:07.627Z,2.53
2019-04-26T05:46:02.407Z,1.83
2019-04-26T05:48:58.372Z,2.03
2019-04-26T05:52:16.152Z,2.60
2019-04-26T05:55:10.474Z,2.30
2019-04-26T05:57:51.110Z,3.77
2019-04-26T06:00:45.944Z,2.03
2019-04-26T06:03:49.644Z,2.43
2019-04-26T06:06:33.364Z,4.00
2019-04-26T06:09:25.673Z,2.63
2019-04-26T06:12:35.004Z,3.50
2019-04-26T06:15:33.969Z,4.80
2019-04-26T06:18:16.533Z,2.50
2019-04-26T06:20:52.599Z,2.60
2019-04-26T06:23:39.645Z,3.03
2019-04-26T06:26:54.330Z,2.40
2019-04-26T06:29:43.833Z,2.37
2019-04-26T06:32:33.644Z,2.20
2019-04-26T06:35:20.637Z,4.50
2019-04-26T06:38:19.876Z,8.77
2019-04-26T06:41:18.105Z,4.07
2019-04-26T06:44:03.446Z,4.63
2019-04-26T06:46:51.811Z,3.80
2019-04-26T06:49:40.446Z,3.63
2019-04-26T06:52:15.084Z,4.10
2019-04-26T06:54:52.272Z,4.80
2019-04-26T06:57:45.341Z,7.43
2019-04-26T07:00:20.527Z,3.03
2019-04-26T07:03:28.386Z,5.00
2019-04-26T07:06:03.067Z,5.37
2019-04-26T07:08:39.799Z,3.42
2019-04-26T07:11:38.691Z,4.12
2019-04-26T07:14:37.266Z,3.25
2019-04-26T07:17:14.794Z,2.75
2019-04-26T07:20:07.698Z,4.85
2019-04-26T07:23:17.233Z,2.17
2019-04-26T07:26:15.563Z,2.45
2019-04-26T07:29:26.922Z,3.08
2019-04-26T07:32:16.858Z,2.80
2019-04-26T07:35:08.749Z,2.40
2019-04-26T07:38:14.978Z,3.52
2019-04-26T07:41:13.197Z,2.90
2019-04-26T07:43:58.801Z,3.72
2019-04-26T07:47:08.545Z,2.85
2019-04-26T07:50:05.075Z,2.75
2019-04-26T07:53:03.307Z,2.90
2019-04-26T07:55:39.452Z,2.98
2019-04-26T07:58:33.583Z,2.37
2019-04-26T08:01:16.347Z,2.33
2019-04-26T08:03:55.664Z,2.52
2019-04-26T08:06:33.288Z,2.20
2019-04-26T08:09:24.207Z,2.60
2019-04-26T08:11:50.385Z,2.05
2019-04-26T08:14:28.040Z,5.03
2019-04-26T08:17:24.992Z,2.20
2019-04-26T08:20:24.220Z,2.83
2019-04-26T08:23:02.726Z,2.80
2019-04-26T08:25:36.989Z,2.30
2019-04-26T08:28:12.062Z,2.07
2019-04-26T08:30:46.275Z,2.10
2019-04-26T08:33:29.036Z,5.12
2019-04-26T08:36:03.510Z,3.27
2019-04-26T08:38:35.389Z,4.83
2019-04-26T08:41:08.576Z,3.67
2019-04-26T08:43:49.908Z,3.55
2019-04-26T08:46:40.672Z,3.00
2019-04-26T08:49:35.089Z,4.03
2019-04-26T08:52:14.271Z,4.43
2019-04-26T08:54:43.948Z,1.97
2019-04-26T08:57:15.504Z,2.60
2019-04-26T08:59:50.185Z,2.30
2019-04-26T09:02:32.463Z,2.62
2019-04-26T09:05:11.012Z,3.10
2019-04-26T09:07:47.736Z,2.83
2019-04-26T09:10:21.707Z,3.43
2019-04-26T09:12:56.355Z,2.73
2019-04-26T09:15:51.565Z,2.40
2019-04-26T09:18:22.591Z,3.10
2019-04-26T09:20:53.577Z,5.20
2019-04-26T09:23:44.453Z,2.90
2019-04-26T09:26:32.493Z,2.83
2019-04-26T09:29:26.392Z,2.97
2019-04-26T09:32:07.230Z,4.33
2019-04-26T09:34:41.277Z,3.87
2019-04-26T09:37:12.766Z,2.80
2019-04-26T09:39:43.746Z,2.70
2019-04-26T09:42:33.097Z,2.93
2019-04-26T09:45:18.174Z,3.07
2019-04-26T09:47:51.051Z,2.97
2019-04-26T09:50:26.793Z,2.67
2019-04-26T09:52:58.856Z,2.93
2019-04-26T09:55:35.714Z,3.33
2019-04-26T09:58:03.074Z,2.87
2019-04-26T10:00:34.174Z,2.97
2019-04-26T10:03:05.711Z,3.50
2019-04-26T10:05:38.290Z,2.60
2019-04-26T10:08:13.155Z,3.40
2019-04-26T10:10:42.326Z,3.23
2019-04-26T10:13:20.826Z,3.70
2019-04-26T10:16:02.666Z,3.10
2019-04-26T10:18:32.088Z,2.93
2019-04-26T10:21:03.345Z,2.73
2019-04-26T10:23:34.390Z,3.10
2019-04-26T10:26:06.788Z,2.83
2019-04-26T10:28:37.844Z,3.60
2019-04-26T10:31:08.930Z,5.03
2019-04-26T10:33:39.909Z,5.20
2019-04-26T10:36:11.023Z,3.30
2019-04-26T10:38:42.074Z,3.00
2019-04-26T10:41:13.293Z,3.30
2019-04-26T10:43:44.375Z,3.83
2019-04-26T10:46:15.611Z,3.30
2019-04-26T10:48:49.865Z,3.57
2019-04-26T10:51:24.039Z,3.30
2019-04-26T10:54:01.601Z,4.23
2019-04-26T10:56:36.234Z,3.27
2019-04-26T10:59:15.101Z,3.03
2019-04-26T11:01:46.151Z,3.20
2019-04-26T11:04:17.018Z,4.20
2019-04-26T11:06:48.071Z,3.00
2019-04-26T11:09:19.157Z,3.57
2019-04-26T11:11:50.888Z,3.70
2019-04-26T11:14:22.674Z,3.50
2019-04-26T11:16:54.918Z,3.17
2019-04-26T11:19:25.962Z,4.00
2019-04-26T11:21:57.175Z,3.23
2019-04-26T11:24:28.308Z,3.50
2019-04-26T11:26:59.346Z,4.03
2019-04-26T11:29:30.436Z,3.27
2019-04-26T11:32:02.681Z,2.83
2019-04-26T11:34:34.236Z,2.80
2019-04-26T11:37:05.412Z,2.73
2019-04-26T11:39:39.969Z,4.20
2019-04-26T11:42:11.738Z,3.80
2019-04-26T11:44:44.517Z,2.70
2019-04-26T11:47:15.230Z,2.67
2019-04-26T11:49:46.269Z,2.20
2019-04-26T11:52:17.225Z,2.03
2019-04-26T11:54:51.341Z,2.47
2019-04-26T11:57:20.946Z,2.50
2019-04-26T11:59:52.009Z,3.23
2019-04-26T12:02:23.156Z,1.63
2019-04-26T12:04:56.026Z,2.40
2019-04-26T12:07:31.567Z,1.87
2019-04-26T12:10:09.850Z,2.37
2019-04-26T12:12:39.470Z,2.40
2019-04-26T12:15:11.675Z,2.30
2019-04-26T12:17:42.682Z,2.10
2019-04-26T12:20:13.819Z,1.80
2019-04-26T12:22:44.739Z,2.40
2019-04-26T12:25:15.741Z,1.00
2019-04-26T12:27:46.869Z,0.90
2019-04-26T12:30:18.367Z,4.00
2019-04-26T12:32:50.191Z,2.70
2019-04-26T12:35:21.229Z,2.43
2019-04-26T12:37:54.680Z,2.53
2019-04-26T12:40:25.196Z,2.03
2019-04-26T12:42:56.266Z,1.13
2019-04-26T12:45:51.067Z,2.83
2019-04-26T12:48:22.137Z,2.10
2019-04-26T12:50:53.182Z,0.87
2019-04-26T12:53:26.739Z,0.90
2019-04-26T12:55:58.403Z,1.47
2019-04-26T12:58:29.497Z,1.33
2019-04-26T13:01:00.551Z,1.20
2019-04-26T13:03:31.449Z,2.50
2019-04-26T13:06:02.674Z,5.17
2019-04-26T13:08:33.627Z,2.60
2019-04-26T13:11:14.877Z,1.83
2019-04-26T13:13:51.066Z,3.30
2019-04-26T13:16:29.461Z,1.33
2019-04-26T13:19:00.323Z,2.30
2019-04-26T13:21:33.111Z,1.63
2019-04-26T13:24:06.046Z,4.27
2019-04-26T13:26:37.693Z,1.50
2019-04-26T13:29:08.566Z,1.00
2019-04-26T13:31:39.619Z,3.40
2019-04-26T13:34:10.764Z,0.90
2019-04-26T13:36:41.769Z,0.90
2019-04-26T13:39:17.489Z,2.77
2019-04-26T13:41:46.281Z,1.40
2019-04-26T13:44:19.300Z,1.50
2019-04-26T13:46:57.926Z,1.10
2019-04-26T13:49:42.793Z,2.20
2019-04-26T13:52:13.756Z,1.67
2019-04-26T13:54:44.781Z,1.70
2019-04-26T13:57:15.809Z,1.20
2019-04-26T13:59:46.743Z,1.57
2019-04-26T14:02:17.899Z,1.10
2019-04-26T14:04:48.750Z,1.27
2019-04-26T14:07:24.106Z,1.60
2019-04-26T14:09:52.610Z,1.50
2019-04-26T14:12:23.588Z,1.30
2019-04-26T14:14:54.665Z,1.40
2019-04-26T14:17:26.007Z,1.40
2019-04-26T14:19:58.521Z,1.90
2019-04-26T14:22:31.548Z,2.27
2019-04-26T14:25:06.005Z,1.80
2019-04-26T14:27:38.983Z,1.53
2019-04-26T14:30:10.256Z,1.80
2019-04-26T14:32:42.663Z,1.73
2019-04-26T14:35:15.607Z,1.30
2019-04-26T14:37:49.893Z,1.70
2019-04-26T14:40:19.561Z,1.63
2019-04-26T14:42:50.611Z,1.37
2019-04-26T14:45:23.665Z,1.03
2019-04-26T14:47:54.697Z,1.50
2019-04-26T14:50:28.164Z,1.03
2019-04-26T14:53:02.297Z,0.73
2019-04-26T14:55:31.589Z,1.30
2019-04-26T14:58:02.651Z,1.60
2019-04-26T15:00:38.221Z,1.20
2019-04-26T15:03:20.505Z,1.20
2019-04-26T15:05:51.735Z,1.10
2019-04-26T15:08:22.889Z,1.20
2019-04-26T15:11:00.929Z,1.10
2019-04-26T15:13:27.022Z,1.00
2019-04-26T15:15:58.117Z,1.10
2019-04-26T15:18:33.047Z,1.73
2019-04-26T15:21:03.927Z,1.00
2019-04-26T15:23:35.247Z,1.00
2019-04-26T15:26:06.093Z,1.03
2019-04-26T15:28:37.191Z,1.20
2019-04-26T15:31:08.134Z,1.20
2019-04-26T15:33:42.737Z,1.10
2019-04-26T15:36:14.436Z,1.30
2019-04-26T15:38:46.632Z,0.93
2019-04-26T15:41:33.232Z,1.10
2019-04-26T15:44:24.857Z,1.10
2019-04-26T15:47:03.260Z,0.97
2019-04-26T15:49:38.195Z,2.10
2019-04-26T15:52:09.141Z,1.37
2019-04-26T15:54:40.194Z,1.13
2019-04-26T15:57:12.335Z,3.03
2019-04-26T15:59:43.509Z,1.00
2019-04-26T16:02:14.367Z,0.97
2019-04-26T16:04:47.491Z,0.73
2019-04-26T16:07:27.305Z,0.60
2019-04-26T16:09:55.481Z,0.90
2019-04-26T16:12:27.005Z,0.80
2019-04-26T16:14:57.050Z,1.53
2019-04-26T16:17:28.159Z,1.00
2019-04-26T16:20:00.146Z,1.10
2019-04-26T16:22:33.191Z,1.53
2019-04-26T16:25:05.608Z,0.90
2019-04-26T16:27:36.593Z,1.50
2019-04-26T16:30:09.436Z,0.93
2019-04-26T16:33:00.024Z,1.53
2019-04-26T16:35:32.408Z,1.23
2019-04-26T16:38:22.925Z,1.60
2019-04-26T16:40:55.159Z,1.40
2019-04-26T16:43:36.487Z,3.37
2019-04-26T16:46:02.323Z,2.10
2019-04-26T16:48:33.479Z,2.30
2019-04-26T16:51:08.320Z,1.33
2019-04-26T16:56:12.525Z,2.00
2019-04-26T16:58:45.410Z,1.60
2019-04-26T17:01:16.546Z,1.70
2019-04-26T17:03:48.291Z,1.73
2019-04-26T17:06:19.520Z,1.70
2019-04-26T17:09:00.204Z,1.50
2019-04-26T17:09:38.414Z,1.90
2019-04-26T17:11:23.267Z,2.13
2019-04-26T17:13:56.738Z,1.50
2019-04-26T17:16:29.638Z,1.20
2019-04-26T17:19:00.752Z,1.90
2019-04-26T17:21:34.708Z,1.50
2019-04-26T17:24:09.590Z,2.13
2019-04-26T17:26:48.120Z,1.70
2019-04-26T17:29:19.761Z,2.30
2019-04-26T17:31:52.286Z,1.70
2019-04-26T17:34:28.818Z,1.90
2019-04-26T17:36:56.174Z,1.90
2019-04-26T17:39:27.166Z,1.90
2019-04-26T17:41:58.272Z,1.93
2019-04-26T17:44:30.739Z,1.93
2019-04-26T17:47:02.314Z,1.80
2019-04-26T17:49:34.709Z,1.90
2019-04-26T17:52:06.363Z,2.03
2019-04-26T17:54:46.085Z,2.60
2019-04-26T17:57:14.525Z,1.90
2019-04-26T17:59:47.807Z,2.10
2019-04-26T18:02:31.490Z,1.70
2019-04-26T18:04:58.940Z,1.57
2019-04-26T18:07:40.164Z,1.57
2019-04-26T18:09:57.068Z,2.13
2019-04-26T18:12:28.200Z,1.90
2019-04-26T18:15:00.134Z,1.53
2019-04-26T18:17:38.914Z,1.87
2019-04-26T18:20:09.103Z,1.47
2019-04-26T18:22:47.967Z,1.60
2019-04-26T18:25:19.033Z,1.73
2019-04-26T18:27:49.970Z,1.60
2019-04-26T18:30:21.261Z,2.00
2019-04-26T18:32:52.350Z,1.57
2019-04-26T18:35:23.432Z,2.00
2019-04-26T18:37:54.411Z,1.60
2019-04-26T18:40:25.446Z,4.33
2019-04-26T18:42:56.649Z,2.60
2019-04-26T18:45:29.831Z,3.07
2019-04-26T18:48:01.961Z,3.10
2019-04-26T18:50:36.512Z,3.07
2019-04-26T18:53:14.608Z,1.37
2019-04-26T18:55:47.470Z,1.50
2019-04-26T18:58:18.457Z,1.93
2019-04-26T19:00:49.495Z,1.80
2019-04-26T19:03:26.194Z,2.10
2019-04-26T19:05:54.185Z,2.00
2019-04-26T19:08:27.174Z,1.70
2019-04-26T19:11:01.341Z,2.50
2019-04-26T19:13:47.947Z,2.43
2019-04-26T19:16:29.907Z,2.20
2019-04-26T19:19:22.779Z,2.23
2019-04-26T19:21:55.348Z,2.03
2019-04-26T19:24:26.336Z,2.90
2019-04-26T19:26:57.187Z,2.40
2019-04-26T19:29:33.674Z,4.40
2019-04-26T19:32:04.226Z,3.63
2019-04-26T19:34:34.061Z,3.00
2019-04-26T19:37:05.251Z,2.60
2019-04-26T19:39:36.253Z,3.07
2019-04-26T19:42:07.335Z,2.70
2019-04-26T19:44:38.171Z,2.60
2019-04-26T19:47:12.262Z,3.40
2019-04-26T19:49:48.198Z,3.77
2019-04-26T19:52:39.457Z,4.50
2019-04-26T19:55:27.253Z,2.90
2019-04-26T19:58:01.819Z,3.67
2019-04-26T20:00:33.333Z,3.60
2019-04-26T20:03:08.572Z,3.50
2019-04-26T20:05:40.472Z,2.97
2019-04-26T20:08:12.080Z,3.37
2019-04-26T20:10:45.595Z,4.50
2019-04-26T20:13:16.712Z,7.00
2019-04-26T20:15:47.941Z,3.67
2019-04-26T20:18:18.911Z,3.97
2019-04-26T20:20:52.011Z,3.90
2019-04-26T20:23:23.150Z,4.00
2019-04-26T20:25:54.137Z,3.90
2019-04-26T20:28:25.100Z,3.60
2019-04-26T20:31:07.806Z,3.73
2019-04-26T20:33:36.455Z,4.70
2019-04-26T20:36:07.413Z,4.33
2019-04-26T20:38:45.496Z,4.80
2019-04-26T20:41:13.221Z,4.30
2019-04-26T20:43:48.683Z,3.80
2019-04-26T20:46:16.865Z,4.33
2019-04-26T20:48:47.827Z,3.90
2019-04-26T20:51:18.775Z,3.57
2019-04-26T20:53:49.761Z,4.37
2019-04-26T20:56:22.489Z,4.53
2019-04-26T20:58:53.773Z,6.47
2019-04-26T21:01:25.148Z,4.00
2019-04-26T21:03:56.119Z,4.33
2019-04-26T21:06:29.285Z,3.57
2019-04-26T21:09:03.355Z,3.90
2019-04-26T21:11:37.157Z,4.67
2019-04-26T21:14:07.774Z,4.13
2019-04-26T21:16:38.826Z,4.67
2019-04-26T21:19:12.737Z,4.87
2019-04-26T21:21:48.233Z,5.00
2019-04-26T21:24:19.583Z,4.90
2019-04-26T21:26:54.596Z,5.17
2019-04-26T21:29:30.401Z,5.03
2019-04-26T21:32:03.353Z,6.70
2019-04-26T21:34:39.020Z,5.23
2019-04-26T21:37:27.060Z,5.70
2019-04-26T21:39:59.949Z,4.70
2019-04-26T21:42:30.890Z,5.43
2019-04-26T21:45:03.513Z,5.60
2019-04-26T21:47:37.157Z,5.40
2019-04-26T21:50:08.381Z,5.07
2019-04-26T21:52:39.440Z,5.13
2019-04-26T21:55:10.609Z,5.00
2019-04-26T21:57:41.559Z,5.43
2019-04-26T22:00:14.722Z,5.57
2019-04-26T22:02:45.796Z,5.97
2019-04-26T22:05:17.004Z,5.60
2019-04-26T22:07:48.006Z,5.73
2019-04-26T22:10:23.733Z,6.10
2019-04-26T22:12:54.804Z,5.80
2019-04-26T22:15:37.312Z,5.87
2019-04-26T22:18:10.318Z,6.47
2019-04-26T22:20:50.932Z,5.60
2019-04-26T22:23:39.017Z,6.30
2019-04-26T22:26:10.085Z,5.07
2019-04-26T22:28:41.133Z,4.93
2019-04-26T22:31:13.376Z,5.23
2019-04-26T22:33:44.667Z,5.63
2019-04-26T22:36:15.880Z,4.60
2019-04-26T22:38:46.970Z,5.37
2019-04-26T22:41:17.832Z,5.40
2019-04-26T22:43:59.553Z,5.70
2019-04-26T22:46:47.409Z,5.77
2019-04-26T22:49:17.379Z,10.80
2019-04-26T22:51:48.246Z,5.33
2019-04-26T22:54:19.083Z,6.07
2019-04-26T22:56:49.940Z,5.73
2019-04-26T22:59:22.829Z,5.77
2019-04-26T23:01:53.866Z,6.23
2019-04-26T23:04:26.524Z,7.43
2019-04-26T23:06:57.949Z,6.80
2019-04-26T23:09:29.327Z,6.50
2019-04-26T23:12:03.817Z,6.70
2019-04-26T23:14:36.851Z,6.73
2019-04-26T23:17:27.133Z,7.03
2019-04-26T23:20:17.316Z,7.23
2019-04-26T23:22:48.559Z,6.87
2019-04-26T23:25:19.529Z,6.37
2019-04-26T23:27:54.425Z,6.57
2019-04-26T23:30:23.550Z,7.73
2019-04-26T23:32:54.611Z,7.13
2019-04-26T23:35:25.579Z,7.60
2019-04-26T23:38:00.551Z,7.03
2019-04-26T23:40:29.553Z,7.70
2019-04-26T23:43:00.873Z,7.80
2019-04-26T23:45:33.359Z,7.80
2019-04-26T23:48:07.863Z,8.40
2019-04-26T23:50:37.421Z,8.60
2019-04-26T23:53:08.397Z,8.53
2019-04-26T23:55:42.566Z,8.07
2019-04-26T23:58:13.886Z,8.80
